Aviation Digital Data Service (ADDS)

Output produced by METARs form (1717 UTC 24 June 2019)
found at http://www.aviationweather.gov/metar/data/
 
Forecast for: KAMA (AMARILLO , TX, US)
Text: KAMA 241123Z 2412/2512 VRB04KT P6SM FEW200
Forecast period: 1200 to 2100 UTC 24 June 2019
Forecast type: FROM: standard forecast or significant change
Winds: variable direction winds at 5 MPH (4 knots; 2.1 m/s)
Visibility: 6 or more miles 10+ km)
Ceiling: at least 12,000 feet AGL
Clouds: few clouds at 20000 feet AGL
Weather: no significant weather forecast for this period
Text: FM242100 18011KT P6SM FEW250
Forecast period: 2100 UTC 24 June 2019 to 1200 UTC 25 June 2019
Forecast type: FROM: standard forecast or significant change
Winds: from the S (180 degrees) at 13 MPH (11 knots; 5.7 m/s)
Visibility: 6 or more miles 10+ km)
Ceiling: at least 12,000 feet AGL
Clouds: few clouds at 25000 feet AGL
Weather: no significant weather forecast for this period